KLM1009 EHAM-LEBL
Flight info
| Callsign | KLM1009 |
|---|---|
| Flight time | N/A |
| Altitude | 31000 |
| Route | WOODY N872 MEDIL/N0481F410 DCT KOVIN DCT DUCRA UM728 RESMI UN857 DISAK DCT DIRMO DCT VALKU DCT ATSUP DCT MINSO DCT DEGOL DCT PPG DCT ALBER |
| Aircraft | A359/H-SDE2E3GHIJ3J4J5LM1ORWXY/LB1D1 |
Departure
| Time | 2026-04-27 11:39 |
|---|---|
| Airport | Amsterdam Airport Schiphol (EHAM) |
Arrival
| Time | N/A |
|---|---|
| Airport | Josep Tarradellas Barcelona-El Prat Airport (LEBL) |
| Time | Latitude | Longitude | Altitude | Speed | Heading |
|---|---|---|---|---|---|
| 2026-04-27 11:08 | 52.31286 | 4.75587 | 11 ft | 0 kts | 87° |
| 2026-04-27 11:24 | 52.31286 | 4.75586 | 11 ft | 2 kts | 87° |
| 2026-04-27 11:25 | 52.31285 | 4.75559 | 11 ft | 2 kts | 84° |
| 2026-04-27 11:25 | 52.31283 | 4.75533 | 13 ft | 2 kts | 81° |
| 2026-04-27 11:25 | 52.31280 | 4.75507 | 15 ft | 2 kts | 74° |
| 2026-04-27 11:25 | 52.31274 | 4.75482 | 15 ft | 2 kts | 58° |
| 2026-04-27 11:26 | 52.31263 | 4.75463 | 15 ft | 2 kts | 24° |
| 2026-04-27 11:26 | 52.31249 | 4.75457 | 16 ft | 1 kts | 360° |
| 2026-04-27 11:26 | 52.31246 | 4.75457 | 16 ft | 0 kts | 359° |
| 2026-04-27 11:28 | 52.31255 | 4.75457 | 16 ft | 5 kts | 358° |
| 2026-04-27 11:29 | 52.31306 | 4.75452 | 13 ft | 9 kts | 357° |
| 2026-04-27 11:29 | 52.31374 | 4.75447 | 15 ft | 11 kts | 357° |
| 2026-04-27 11:29 | 52.31388 | 4.75446 | 14 ft | 0 kts | 357° |
| 2026-04-27 11:30 | 52.31412 | 4.75443 | 15 ft | 11 kts | 355° |
| 2026-04-27 11:30 | 52.31491 | 4.75411 | 17 ft | 11 kts | 317° |
| 2026-04-27 11:30 | 52.31507 | 4.75281 | 15 ft | 13 kts | 268° |
| 2026-04-27 11:30 | 52.31502 | 4.75118 | 17 ft | 15 kts | 267° |
| 2026-04-27 11:31 | 52.31496 | 4.74945 | 23 ft | 16 kts | 266° |
| 2026-04-27 11:31 | 52.31489 | 4.74750 | 24 ft | 18 kts | 266° |
| 2026-04-27 11:31 | 52.31482 | 4.74542 | 26 ft | 19 kts | 266° |
| 2026-04-27 11:31 | 52.31501 | 4.74325 | 23 ft | 20 kts | 318° |
| 2026-04-27 11:32 | 52.31625 | 4.74302 | 22 ft | 18 kts | 0° |
| 2026-04-27 11:32 | 52.31760 | 4.74312 | 22 ft | 22 kts | 4° |
| 2026-04-27 11:32 | 52.31928 | 4.74329 | 14 ft | 26 kts | 2° |
| 2026-04-27 11:32 | 52.32033 | 4.74181 | 19 ft | 22 kts | 273° |
| 2026-04-27 11:33 | 52.32043 | 4.73934 | 22 ft | 22 kts | 274° |
| 2026-04-27 11:33 | 52.32049 | 4.73687 | 25 ft | 23 kts | 274° |
| 2026-04-27 11:33 | 52.32072 | 4.73410 | 22 ft | 26 kts | 293° |
| 2026-04-27 11:33 | 52.32210 | 4.73185 | 11 ft | 31 kts | 319° |
| 2026-04-27 11:34 | 52.32384 | 4.72940 | 4 ft | 34 kts | 320° |
| 2026-04-27 11:34 | 52.32556 | 4.72699 | 3 ft | 27 kts | 318° |
| 2026-04-27 11:34 | 52.32689 | 4.72498 | 6 ft | 23 kts | 313° |
| 2026-04-27 11:34 | 52.32806 | 4.72288 | 7 ft | 23 kts | 311° |
| 2026-04-27 11:35 | 52.32922 | 4.72076 | 4 ft | 26 kts | 312° |
| 2026-04-27 11:35 | 52.33041 | 4.71849 | 8 ft | 26 kts | 311° |
| 2026-04-27 11:35 | 52.33144 | 4.71613 | 14 ft | 24 kts | 282° |
| 2026-04-27 11:35 | 52.33078 | 4.71413 | 23 ft | 20 kts | 221° |
| 2026-04-27 11:36 | 52.32968 | 4.71252 | 24 ft | 22 kts | 222° |
| 2026-04-27 11:36 | 52.32884 | 4.71118 | 24 ft | 10 kts | 231° |
| 2026-04-27 11:36 | 52.32878 | 4.71101 | 23 ft | 0 kts | 241° |
| 2026-04-27 11:37 | 52.32875 | 4.71087 | 23 ft | 7 kts | 252° |
| 2026-04-27 11:38 | 52.32877 | 4.70946 | 24 ft | 14 kts | 293° |
| 2026-04-27 11:38 | 52.32945 | 4.70896 | 24 ft | 0 kts | 358° |
| 2026-04-27 11:38 | 52.32946 | 4.70896 | 24 ft | 1 kts | 358° |
| 2026-04-27 11:38 | 52.33105 | 4.70906 | 22 ft | 59 kts | 4° |
| 2026-04-27 11:39 | 52.33759 | 4.70967 | 30 ft | 127 kts | 3° |
| 2026-04-27 11:39 | 52.34831 | 4.71069 | 179 ft | 171 kts | 5° |
| 2026-04-27 11:39 | 52.35977 | 4.71393 | 1007 ft | 165 kts | 30° |
| 2026-04-27 11:39 | 52.36699 | 4.72888 | 1679 ft | 183 kts | 67° |
| 2026-04-27 11:40 | 52.36937 | 4.75067 | 2101 ft | 207 kts | 91° |
| 2026-04-27 11:40 | 52.36556 | 4.77367 | 2703 ft | 216 kts | 117° |
| 2026-04-27 11:40 | 52.35639 | 4.79362 | 3347 ft | 223 kts | 130° |
| 2026-04-27 11:40 | 52.34589 | 4.81234 | 3990 ft | 229 kts | 134° |
| 2026-04-27 11:41 | 52.33232 | 4.82647 | 4671 ft | 235 kts | 161° |
| 2026-04-27 11:41 | 52.31597 | 4.83230 | 5142 ft | 251 kts | 170° |
| 2026-04-27 11:41 | 52.29810 | 4.83690 | 5538 ft | 266 kts | 171° |
| 2026-04-27 11:41 | 52.27964 | 4.84183 | 6215 ft | 269 kts | 171° |
| 2026-04-27 11:42 | 52.26096 | 4.84664 | 6877 ft | 274 kts | 174° |
| 2026-04-27 11:42 | 52.24177 | 4.84796 | 7484 ft | 279 kts | 181° |
| 2026-04-27 11:42 | 52.22224 | 4.84756 | 8191 ft | 281 kts | 182° |
| 2026-04-27 11:42 | 52.20263 | 4.84700 | 8874 ft | 284 kts | 182° |
| 2026-04-27 11:43 | 52.18278 | 4.84648 | 9604 ft | 285 kts | 182° |
| 2026-04-27 11:43 | 52.16298 | 4.84602 | 10323 ft | 286 kts | 182° |
| 2026-04-27 11:43 | 52.14259 | 4.84554 | 10720 ft | 299 kts | 182° |
| 2026-04-27 11:43 | 52.12145 | 4.84505 | 10977 ft | 316 kts | 182° |
| 2026-04-27 11:44 | 52.09862 | 4.84455 | 11232 ft | 331 kts | 182° |
| 2026-04-27 11:44 | 52.07511 | 4.84406 | 11538 ft | 343 kts | 182° |
| 2026-04-27 11:44 | 52.05139 | 4.84357 | 12058 ft | 348 kts | 182° |
| 2026-04-27 11:44 | 52.02712 | 4.84149 | 12603 ft | 350 kts | 190° |
| 2026-04-27 11:45 | 52.00390 | 4.83022 | 13200 ft | 349 kts | 205° |
| 2026-04-27 11:45 | 51.98923 | 4.81928 | 13584 ft | 350 kts | 207° |
| 2026-04-27 11:45 | 51.97697 | 4.80959 | 13910 ft | 351 kts | 208° |
| 2026-04-27 11:46 | 51.96599 | 4.80082 | 14194 ft | 352 kts | 208° |
| 2026-04-27 11:46 | 51.94413 | 4.78340 | 14700 ft | 355 kts | 208° |
| 2026-04-27 11:47 | 51.92201 | 4.76589 | 15251 ft | 356 kts | 208° |
| 2026-04-27 11:47 | 51.89954 | 4.74815 | 15770 ft | 358 kts | 209° |
| 2026-04-27 11:47 | 51.87702 | 4.73048 | 16302 ft | 361 kts | 209° |
| 2026-04-27 11:47 | 51.86317 | 4.71965 | 16634 ft | 362 kts | 209° |
| 2026-04-27 11:48 | 51.84000 | 4.70155 | 17162 ft | 365 kts | 209° |
| 2026-04-27 11:48 | 51.83707 | 4.69926 | 17209 ft | 365 kts | 209° |
| 2026-04-27 11:49 | 51.81944 | 4.68551 | 17631 ft | 367 kts | 209° |
| 2026-04-27 11:49 | 51.79679 | 4.66787 | 18148 ft | 369 kts | 209° |
| 2026-04-27 11:49 | 51.78845 | 4.66141 | 18329 ft | 369 kts | 208° |
| 2026-04-27 11:50 | 51.76523 | 4.64354 | 18801 ft | 372 kts | 209° |
| 2026-04-27 11:50 | 51.74181 | 4.62548 | 19224 ft | 374 kts | 209° |
| 2026-04-27 11:50 | 51.71836 | 4.60737 | 19624 ft | 376 kts | 209° |
| 2026-04-27 11:50 | 51.69458 | 4.58899 | 20084 ft | 378 kts | 209° |
| 2026-04-27 11:51 | 51.67073 | 4.57054 | 20497 ft | 380 kts | 209° |
| 2026-04-27 11:51 | 51.64690 | 4.55205 | 20916 ft | 382 kts | 209° |
| 2026-04-27 11:51 | 51.59866 | 4.51473 | 21771 ft | 386 kts | 210° |
| 2026-04-27 11:52 | 51.58591 | 4.50488 | 21994 ft | 387 kts | 210° |
| 2026-04-27 11:52 | 51.56456 | 4.48844 | 22362 ft | 389 kts | 210° |
| 2026-04-27 11:52 | 51.54013 | 4.46966 | 22762 ft | 391 kts | 210° |
| 2026-04-27 11:53 | 51.51544 | 4.45070 | 23151 ft | 393 kts | 210° |
| 2026-04-27 11:53 | 51.49076 | 4.43178 | 23541 ft | 395 kts | 210° |
| 2026-04-27 11:53 | 51.46589 | 4.41274 | 23906 ft | 397 kts | 210° |
| 2026-04-27 11:53 | 51.44090 | 4.39362 | 24235 ft | 399 kts | 210° |
| 2026-04-27 11:54 | 51.41576 | 4.37440 | 24560 ft | 400 kts | 210° |
| 2026-04-27 11:54 | 51.39061 | 4.35520 | 24890 ft | 402 kts | 210° |
| 2026-04-27 11:54 | 51.36535 | 4.33599 | 25218 ft | 404 kts | 210° |
| 2026-04-27 11:54 | 51.33977 | 4.31660 | 25557 ft | 406 kts | 210° |
| 2026-04-27 11:55 | 51.31423 | 4.29726 | 25905 ft | 407 kts | 210° |
| 2026-04-27 11:55 | 51.28861 | 4.27778 | 26265 ft | 409 kts | 210° |
| 2026-04-27 11:55 | 51.26287 | 4.25823 | 26614 ft | 411 kts | 210° |
| 2026-04-27 11:55 | 51.23704 | 4.23864 | 26980 ft | 413 kts | 210° |
| 2026-04-27 11:56 | 51.21101 | 4.21894 | 27386 ft | 415 kts | 210° |
| 2026-04-27 11:56 | 51.18478 | 4.19911 | 27784 ft | 417 kts | 210° |
| 2026-04-27 11:56 | 51.15826 | 4.18118 | 28211 ft | 422 kts | 205° |